Time;durP1;ratioP1;P1;durP2;ratioP2;P2;SDS_P1;SDS_P2;PMS_P1;PMS_P2;Temp;Humidity;BMP_temperature;BMP_pressure;BME280_temperature;BME280_humidity;BME280_pressure;Samples;Min_cycle;Max_cycle;Signal;HPM_P1;HPM_P2
2022/09/01 00:01:07;;;;;;;2.80;1.60;;;;;;;18.82;85.55;100215.41;5022412;28;20301;-61
2022/09/01 00:03:58;;;;;;;3.30;1.60;;;;;;;18.95;84.58;100211.19;5021931;28;20293;-63
2022/09/01 00:06:41;;;;;;;2.30;1.60;;;;;;;19.09;83.36;100220.19;4991676;28;20276;-62
2022/09/01 00:09:30;;;;;;;2.20;1.67;;;;;;;19.26;83.70;100225.47;5006585;28;20280;-62
2022/09/01 00:12:11;;;;;;;2.70;1.97;;;;;;;19.32;82.79;100230.44;5021784;28;20376;-62
2022/09/01 00:14:45;;;;;;;4.37;1.83;;;;;;;19.30;81.92;100213.78;5022051;28;20343;-61
2022/09/01 00:17:29;;;;;;;2.20;1.60;;;;;;;19.47;82.23;100217.28;5044891;28;20862;-63
2022/09/01 00:20:12;;;;;;;2.30;1.53;;;;;;;19.56;82.28;100216.81;5103308;28;20294;-64
2022/09/01 00:23:21;;;;;;;4.03;2.17;;;;;;;19.77;81.74;100217.47;5101123;28;20335;-64
2022/09/01 00:26:15;;;;;;;3.37;1.60;;;;;;;19.95;81.59;100212.94;5104077;28;20317;-62
2022/09/01 00:29:06;;;;;;;3.87;1.70;;;;;;;20.16;79.99;100209.06;5104241;28;20366;-63
2022/09/01 00:31:53;;;;;;;2.37;1.30;;;;;;;20.39;79.20;100209.53;5102662;28;20321;-63
2022/09/01 00:37:25;;;;;;;1.77;1.47;;;;;;;20.93;76.70;100207.25;5102832;28;20286;-63
2022/09/01 00:40:11;;;;;;;1.83;1.40;;;;;;;20.86;76.00;100195.28;5103652;28;20297;-64
2022/09/01 00:42:48;;;;;;;2.50;1.70;;;;;;;20.71;74.17;100206.81;5103488;28;20290;-63
2022/09/01 00:45:41;;;;;;;2.05;1.33;;;;;;;20.67;76.30;100185.78;5102597;28;20494;-62
2022/09/01 00:48:39;;;;;;;2.25;2.03;;;;;;;20.78;76.26;100193.09;5064137;28;20056;-63
2022/09/01 00:51:36;;;;;;;1.75;1.58;;;;;;;20.78;75.75;100193.09;5057188;28;20113;-63
2022/09/01 00:54:24;;;;;;;1.73;1.40;;;;;;;20.80;76.48;100196.50;5103803;28;20143;-63
2022/09/01 00:57:01;;;;;;;3.03;1.77;;;;;;;20.77;75.39;100179.91;5103392;28;20112;-63
2022/09/01 00:59:47;;;;;;;6.45;1.98;;;;;;;20.76;75.01;100183.50;5119161;28;20289;-63
2022/09/01 01:02:45;;;;;;;2.60;1.80;;;;;;;20.66;75.54;100146.88;5108425;28;20055;-61
2022/09/01 01:05:22;;;;;;;2.20;1.80;;;;;;;20.80;75.28;100155.84;5120086;28;20915;-63
2022/09/01 01:08:10;;;;;;;2.67;1.80;;;;;;;20.99;72.18;100169.69;5121649;28;20313;-63
2022/09/01 01:11:08;;;;;;;2.27;1.70;;;;;;;21.01;71.35;100166.94;5073146;28;20348;-62
2022/09/01 01:13:57;;;;;;;3.85;2.28;;;;;;;20.92;71.65;100162.19;5121175;28;20357;-63
2022/09/01 01:16:46;;;;;;;5.83;2.27;;;;;;;20.94;71.91;100171.75;5120740;28;20285;-59
2022/09/01 01:25:53;;;;;;;2.70;1.70;;;;;;;20.87;70.41;100175.75;5120696;28;20293;-61
2022/09/01 01:28:37;;;;;;;3.43;2.20;;;;;;;20.65;70.27;100139.88;5119326;28;20289;-61
2022/09/01 01:31:22;;;;;;;5.60;1.97;;;;;;;20.78;71.61;100160.38;5119862;28;20281;-61
2022/09/01 01:34:07;;;;;;;2.63;2.00;;;;;;;20.86;71.94;100158.09;5117703;28;20292;-61
2022/09/01 01:36:43;;;;;;;3.30;2.10;;;;;;;21.02;68.80;100150.91;5070107;28;20319;-61
2022/09/01 01:39:31;;;;;;;3.70;1.90;;;;;;;21.21;68.26;100155.06;5119781;28;20281;-60
2022/09/01 01:42:12;;;;;;;4.80;2.30;;;;;;;21.33;66.75;100146.34;5103334;28;20294;-60
2022/09/01 01:44:57;;;;;;;2.87;1.97;;;;;;;21.46;66.30;100155.25;5119733;28;20062;-60
2022/09/01 01:50:52;;;;;;;2.15;1.73;;;;;;;21.58;65.93;100155.44;5114537;28;20079;-61
2022/09/01 01:53:43;;;;;;;3.88;2.00;;;;;;;21.64;65.25;100149.72;5123455;28;20115;-62
2022/09/01 01:56:30;;;;;;;3.27;2.00;;;;;;;21.51;65.35;100121.28;5123889;28;20247;-62
2022/09/01 01:59:23;;;;;;;4.87;2.10;;;;;;;21.68;65.50;100146.78;5124145;28;20286;-66
2022/09/01 02:02:08;;;;;;;2.63;1.65;;;;;;;21.56;66.54;100110.34;5095167;28;20301;-62
2022/09/01 02:04:48;;;;;;;3.30;1.63;;;;;;;21.83;63.21;100136.97;5124167;28;20383;-61
2022/09/01 02:07:31;;;;;;;2.10;1.77;;;;;;;21.95;62.80;100138.81;5124384;28;20392;-61
2022/09/01 02:10:14;;;;;;;3.73;1.80;;;;;;;22.15;63.29;100134.84;5123796;28;20590;-61
2022/09/01 02:12:55;;;;;;;3.03;1.80;;;;;;;22.26;62.88;100126.16;5122598;28;20079;-62
2022/09/01 02:16:25;;;;;;;2.77;1.90;;;;;;;22.28;63.10;100124.25;5122802;28;20081;-62
2022/09/01 02:19:18;;;;;;;5.43;1.57;;;;;;;22.43;63.23;100121.50;5095370;28;20064;-61
2022/09/01 02:22:14;;;;;;;4.93;1.70;;;;;;;22.36;62.18;100127.22;5121839;28;20047;-61
2022/09/01 02:25:20;;;;;;;3.50;1.47;;;;;;;22.32;62.68;100125.75;5123456;28;20071;-61
2022/09/01 02:28:08;;;;;;;2.70;1.70;;;;;;;22.33;62.79;100122.13;5123466;28;20153;-61
2022/09/01 02:30:50;;;;;;;4.57;1.52;;;;;;;22.30;61.99;100117.03;5123056;28;20059;-59
2022/09/01 02:33:30;;;;;;;13.07;2.60;;;;;;;22.18;61.96;100117.81;5123541;28;20190;-61
2022/09/01 02:36:18;;;;;;;2.10;1.60;;;;;;;22.08;62.40;100122.03;5099284;28;20216;-60
2022/09/01 02:42:09;;;;;;;1.93;1.27;;;;;;;21.61;62.28;100064.84;5122949;28;20260;-60
2022/09/01 02:44:50;;;;;;;2.30;1.77;;;;;;;21.65;62.64;100087.63;5123249;28;20051;-61
2022/09/01 02:47:36;;;;;;;4.27;1.90;;;;;;;21.68;63.72;100098.06;5123343;28;20174;-60
2022/09/01 02:50:22;;;;;;;2.93;1.77;;;;;;;21.68;64.36;100103.38;5122679;28;20118;-60
2022/09/01 02:53:08;;;;;;;2.07;1.53;;;;;;;21.45;63.58;100092.44;5123471;28;20213;-60
2022/09/01 02:59:04;;;;;;;4.95;2.08;;;;;;;21.43;64.36;100114.75;5123109;28;19966;-61
2022/09/01 03:01:50;;;;;;;3.03;1.90;;;;;;;21.43;65.09;100115.59;5122466;28;20047;-60
2022/09/01 03:07:41;;;;;;;4.80;1.80;;;;;;;21.23;66.36;100118.63;5122979;28;20060;-61
2022/09/01 03:10:31;;;;;;;2.73;1.40;;;;;;;21.16;65.05;100109.34;5122541;28;20069;-61
2022/09/01 03:16:25;;;;;;;3.23;1.67;;;;;;;21.06;64.62;100101.94;5122705;28;20055;-60
2022/09/01 03:19:08;;;;;;;11.60;2.17;;;;;;;21.19;66.22;100103.81;5122209;28;20285;-61
2022/09/01 03:21:56;;;;;;;3.13;1.60;;;;;;;20.89;65.96;100051.66;5121766;28;20289;-63
2022/09/01 03:25:01;;;;;;;3.27;1.57;;;;;;;21.21;64.57;100091.31;5121989;28;20632;-62
2022/09/01 03:27:39;;;;;;;2.80;1.60;;;;;;;21.16;65.53;100074.81;5122416;28;20309;-62
2022/09/01 03:30:21;;;;;;;2.90;1.98;;;;;;;21.32;65.57;100083.53;5102450;28;20345;-63
2022/09/01 03:33:05;;;;;;;5.33;1.53;;;;;;;21.33;64.89;100082.56;5053737;28;20143;-63
2022/09/01 03:35:48;;;;;;;2.53;1.40;;;;;;;21.41;64.60;100084.75;5081975;28;20306;-62
2022/09/01 03:38:35;;;;;;;3.83;1.60;;;;;;;21.44;64.72;100069.47;5081117;28;20060;-62
2022/09/01 03:41:21;;;;;;;3.47;1.50;;;;;;;21.56;63.81;100081.09;5080780;28;20048;-63
2022/09/01 03:44:12;;;;;;;3.63;1.80;;;;;;;21.50;64.16;100068.22;5081233;28;20045;-63
2022/09/01 03:47:03;;;;;;;2.87;1.70;;;;;;;21.58;64.92;100075.69;5080622;28;20108;-62
2022/09/01 03:49:49;;;;;;;3.40;1.40;;;;;;;21.59;64.28;100072.06;5059925;28;20190;-64
2022/09/01 03:52:32;;;;;;;3.80;1.80;;;;;;;21.17;64.58;100007.41;5081929;28;20298;-62
2022/09/01 03:55:37;;;;;;;2.90;1.60;;;;;;;21.54;64.23;100070.59;5080487;28;20044;-62
2022/09/01 03:58:29;;;;;;;3.30;2.07;;;;;;;21.31;64.77;100033.97;5081194;28;20044;-62
2022/09/01 04:01:03;;;;;;;;;;;;;;;21.56;65.26;100072.28;5087316;28;20056;-62
2022/09/01 04:03:47;;;;;;;4.57;1.70;;;;;;;21.32;63.45;100046.31;5080545;28;20006;-62
2022/09/01 04:09:45;;;;;;;4.03;1.70;;;;;;;21.47;64.11;100076.41;5064165;28;20059;-62
2022/09/01 04:12:36;;;;;;;2.13;1.67;;;;;;;21.55;64.14;100066.13;5021854;28;20058;-62
2022/09/01 04:15:15;;;;;;;2.73;1.80;;;;;;;21.62;64.96;100066.56;5081223;28;20084;-62
2022/09/01 04:18:08;;;;;;;4.10;1.63;;;;;;;21.64;64.36;100075.28;5081061;28;20082;-62
2022/09/01 04:21:07;;;;;;;4.60;2.10;;;;;;;21.58;65.16;100065.06;5080658;28;20064;-62
2022/09/01 04:23:44;;;;;;;3.53;1.70;;;;;;;21.58;65.00;100075.69;5070564;28;20452;-63
2022/09/01 04:32:49;;;;;;;3.10;1.70;;;;;;;21.66;64.36;100062.75;5104458;28;20078;-63
2022/09/01 04:35:31;;;;;;;4.87;2.00;;;;;;;21.54;64.62;100028.03;5121664;28;20051;-63
2022/09/01 04:38:10;;;;;;;19.57;4.03;;;;;;;21.88;62.98;100057.72;5093574;28;20059;-61
2022/09/01 04:40:56;;;;;;;12.17;1.90;;;;;;;21.97;63.07;100046.47;5121321;28;20388;-62
2022/09/01 04:43:37;;;;;;;2.97;1.40;;;;;;;22.02;61.57;100054.13;5120156;28;20062;-62
2022/09/01 04:46:34;;;;;;;2.30;1.33;;;;;;;21.60;61.07;99988.72;5073312;28;20039;-63
2022/09/01 04:49:18;;;;;;;2.83;1.33;;;;;;;21.94;61.68;100048.44;5121796;28;20285;-62
2022/09/01 04:51:53;;;;;;;1.47;1.20;;;;;;;21.82;60.91;100031.53;5120901;28;20051;-61
2022/09/01 04:54:31;;;;;;;1.45;1.30;;;;;;;22.04;60.70;100043.38;5121491;28;20061;-62
2022/09/01 04:57:17;;;;;;;3.60;1.60;;;;;;;22.09;61.31;100049.22;5120828;28;20061;-62
2022/09/01 05:00:22;;;;;;;3.70;1.47;;;;;;;22.17;60.62;100041.59;5121175;28;20044;-62
2022/09/01 05:03:14;;;;;;;2.23;1.50;;;;;;;22.23;60.69;100030.56;5121151;28;20047;-63
2022/09/01 05:06:02;;;;;;;3.03;1.60;;;;;;;22.34;60.97;100038.66;5121243;28;20062;-62
2022/09/01 05:08:52;;;;;;;7.20;1.63;;;;;;;22.38;61.41;100029.50;5121340;28;20048;-62
2022/09/01 05:11:32;;;;;;;3.72;1.33;;;;;;;22.42;61.04;100029.31;5120274;28;20260;-62
2022/09/01 05:14:17;;;;;;;5.10;1.70;;;;;;;22.36;60.66;100031.41;5120556;28;20056;-62
2022/09/01 05:16:52;;;;;;;13.00;2.13;;;;;;;22.23;60.83;100027.91;5120691;28;20051;-62
2022/09/01 05:19:31;;;;;;;3.67;1.70;;;;;;;22.00;61.24;100002.00;5121891;28;20075;-63
2022/09/01 05:22:07;;;;;;;2.53;1.40;;;;;;;22.05;61.56;100029.13;5125344;28;20101;-63
2022/09/01 05:24:52;;;;;;;4.97;1.57;;;;;;;21.98;62.11;100026.88;5123921;28;20044;-62
2022/09/01 05:27:30;;;;;;;3.53;1.97;;;;;;;21.96;64.33;100018.13;5123891;28;20093;-63
2022/09/01 05:30:07;;;;;;;3.93;1.73;;;;;;;21.83;64.89;100022.59;5123722;28;20065;-63
2022/09/01 05:32:49;;;;;;;5.17;1.90;;;;;;;21.67;65.25;100021.91;5113631;28;20043;-62
2022/09/01 05:35:54;;;;;;;17.80;2.33;;;;;;;21.60;66.23;100031.25;5125227;28;20110;-62
2022/09/01 05:38:47;;;;;;;12.23;2.10;;;;;;;21.44;67.14;100021.63;5124915;28;20055;-63
2022/09/01 05:41:27;;;;;;;8.37;1.80;;;;;;;21.31;66.10;100024.19;5124600;28;20352;-62
2022/09/01 05:44:17;;;;;;;7.77;2.43;;;;;;;21.24;66.89;100030.88;5125138;28;20055;-63
2022/09/01 05:47:11;;;;;;;15.17;2.60;;;;;;;21.17;67.82;100028.66;5124810;28;20055;-63
2022/09/01 05:49:57;;;;;;;6.97;1.57;;;;;;;20.98;67.71;100043.13;5122334;28;20317;-62
2022/09/01 05:52:47;;;;;;;3.87;1.53;;;;;;;20.57;67.14;100013.88;5121071;28;20062;-62
2022/09/01 05:55:25;;;;;;;3.60;1.53;;;;;;;20.60;66.58;100035.75;5124415;28;20300;-63
2022/09/01 05:58:14;;;;;;;4.00;1.83;;;;;;;20.53;66.95;100045.00;5124583;28;20497;-62
2022/09/01 06:01:32;;;;;;;4.93;1.47;;;;;;;20.48;67.67;100047.94;5122306;28;20311;-62
2022/09/01 06:04:11;;;;;;;5.33;1.80;;;;;;;20.33;68.58;100043.56;5124500;28;20308;-62
2022/09/01 06:06:50;;;;;;;5.87;1.83;;;;;;;20.13;69.18;100031.50;5124131;28;20281;-63
2022/09/01 06:09:54;;;;;;;10.60;2.17;;;;;;;20.15;69.32;100056.16;5123687;28;20278;-63
2022/09/01 06:12:35;;;;;;;11.80;2.90;;;;;;;20.01;70.30;100056.09;5124066;28;20329;-62
2022/09/01 06:15:14;;;;;;;10.93;3.00;;;;;;;19.92;71.88;100043.38;5123917;28;20282;-62
2022/09/01 06:17:51;;;;;;;28.30;3.13;;;;;;;19.99;71.98;100060.63;5123743;28;20285;-61
2022/09/01 06:20:32;;;;;;;4.67;1.63;;;;;;;19.78;69.40;100047.69;5123796;28;20051;-61
2022/09/01 06:23:14;;;;;;;12.13;1.87;;;;;;;19.69;69.91;100048.22;5123634;28;20298;-62
2022/09/01 06:25:58;;;;;;;4.90;1.70;;;;;;;19.64;70.51;100047.59;5122746;28;20288;-63
2022/09/01 06:28:33;;;;;;;19.20;2.47;;;;;;;19.56;70.16;100037.44;5122483;28;20362;-63
2022/09/01 06:31:13;;;;;;;6.87;2.00;;;;;;;19.52;71.11;100045.66;5103892;28;20286;-62
2022/09/01 06:34:16;;;;;;;15.23;2.23;;;;;;;19.39;71.16;100038.41;5123635;28;20288;-61
2022/09/01 06:36:58;;;;;;;6.40;1.80;;;;;;;19.14;71.82;100022.16;5123617;28;20510;-63
2022/09/01 06:39:51;;;;;;;11.50;1.77;;;;;;;19.20;71.42;100040.38;5037476;28;20320;-63
2022/09/01 06:42:36;;;;;;;8.67;1.77;;;;;;;19.10;71.70;100033.91;5122692;28;20293;-63
2022/09/01 06:45:19;;;;;;;2.67;1.50;;;;;;;18.99;72.25;100041.56;5123500;28;20305;-64
2022/09/01 06:51:08;;;;;;;9.07;2.20;;;;;;;18.88;73.46;100048.28;5123241;28;20345;-63
2022/09/01 06:53:58;;;;;;;9.43;1.50;;;;;;;18.98;73.76;100046.00;5122849;28;20348;-63
2022/09/01 07:00:09;;;;;;;5.83;1.70;;;;;;;18.88;74.08;100045.66;5122691;28;20261;-61
2022/09/01 07:03:08;;;;;;;12.03;1.87;;;;;;;18.93;73.21;100054.19;5122910;28;20622;-62
2022/09/01 07:05:54;;;;;;;7.20;2.00;;;;;;;18.85;73.70;100039.69;5122860;28;20281;-61
2022/09/01 07:08:48;;;;;;;2.60;1.40;;;;;;;18.86;73.21;100052.81;5123147;28;20308;-63
2022/09/01 07:11:49;;;;;;;14.07;2.00;;;;;;;18.77;73.74;100045.38;5122438;28;20276;-64
2022/09/01 07:15:20;;;;;;;8.90;1.57;;;;;;;18.74;73.79;100048.16;5109258;28;20245;-63
2022/09/01 07:18:27;;;;;;;2.00;1.30;;;;;;;18.68;74.00;100051.97;5100343;28;20316;-64
2022/09/01 07:21:09;;;;;;;2.20;1.73;;;;;;;18.68;73.82;100048.50;5100274;28;20114;-64
2022/09/01 07:24:05;;;;;;;3.67;1.47;;;;;;;18.71;74.92;100053.59;5099733;28;20340;-64
2022/09/01 07:26:48;;;;;;;1.75;1.30;;;;;;;18.70;74.42;100051.91;5099633;28;20491;-64
2022/09/01 07:29:38;;;;;;;4.93;1.43;;;;;;;18.70;74.53;100062.50;5099299;28;20056;-64
2022/09/01 07:32:29;;;;;;;4.10;1.80;;;;;;;18.65;75.03;100075.13;5085945;28;20297;-64
2022/09/01 07:35:15;;;;;;;2.53;1.60;;;;;;;18.72;74.49;100071.19;5084095;28;20270;-64
2022/09/01 07:38:00;;;;;;;7.70;1.57;;;;;;;18.71;74.58;100069.50;5099132;28;20274;-65
2022/09/01 07:41:15;;;;;;;5.67;1.40;;;;;;;18.82;74.72;100072.47;5097286;28;20309;-64
2022/09/01 07:44:22;;;;;;;1.33;1.17;;;;;;;18.81;74.47;100069.88;5098291;28;20302;-65
2022/09/01 07:47:15;;;;;;;7.07;1.53;;;;;;;18.80;74.56;100070.84;5099033;28;20048;-62
2022/09/01 07:49:53;;;;;;;5.63;1.40;;;;;;;18.83;74.23;100079.47;5099672;28;20402;-63
2022/09/01 07:52:54;;;;;;;3.03;1.40;;;;;;;18.80;74.90;100090.22;5099493;28;20298;-62
2022/09/01 07:55:45;;;;;;;9.43;1.80;;;;;;;18.91;75.24;100085.19;5052149;28;20289;-63
2022/09/01 07:58:28;;;;;;;8.83;3.23;;;;;;;18.89;75.44;100084.41;5099353;28;20345;-62
2022/09/01 08:01:17;;;;;;;9.00;2.50;;;;;;;18.85;77.93;100082.88;5099769;28;20308;-61
2022/09/01 08:04:10;;;;;;;7.43;2.30;;;;;;;18.88;78.59;100088.00;5098916;28;20312;-62
2022/09/01 08:07:10;;;;;;;3.53;2.43;;;;;;;18.82;78.37;100083.06;5099319;28;20274;-61
2022/09/01 08:09:55;;;;;;;15.10;8.47;;;;;;;18.85;79.01;100077.59;5099567;28;20534;-62
2022/09/01 08:12:36;;;;;;;15.47;9.93;;;;;;;18.82;79.55;100080.41;5076055;28;20665;-63
2022/09/01 08:15:21;;;;;;;13.03;6.80;;;;;;;18.75;80.10;100082.50;5098875;28;20669;-63
2022/09/01 08:18:19;;;;;;;10.00;4.00;;;;;;;18.81;80.11;100091.06;5059418;28;20306;-63
2022/09/01 08:20:59;;;;;;;11.17;3.27;;;;;;;18.72;80.57;100102.94;5097743;28;20270;-63
2022/09/01 08:23:50;;;;;;;9.63;2.00;;;;;;;18.61;81.15;100100.03;5057249;28;20274;-62
2022/09/01 08:26:30;;;;;;;7.43;3.20;;;;;;;18.56;81.49;100099.41;5090668;28;20290;-63
2022/09/01 08:29:14;;;;;;;8.03;4.20;;;;;;;18.56;82.05;100099.41;5098870;28;20304;-63
2022/09/01 08:31:57;;;;;;;7.67;3.07;;;;;;;18.58;82.27;100102.84;5098841;28;20552;-61
2022/09/01 08:34:38;;;;;;;12.73;3.03;;;;;;;18.61;82.26;100105.31;5112838;28;20286;-64
2022/09/01 08:37:24;;;;;;;7.10;3.40;;;;;;;18.52;82.50;100111.91;5121043;28;20317;-64
2022/09/01 08:40:13;;;;;;;;;;;;;;;18.46;82.75;100113.09;5122243;28;20361;-64
2022/09/01 08:43:08;;;;;;;12.20;3.50;;;;;;;18.37;83.37;100112.72;5110854;28;19991;-64
2022/09/01 08:46:12;;;;;;;4.83;2.57;;;;;;;18.29;83.21;100110.47;5091286;28;20285;-64
2022/09/01 08:48:59;;;;;;;6.30;2.67;;;;;;;18.19;83.37;100093.34;5120979;28;20632;-64
2022/09/01 08:52:16;;;;;;;38.47;4.87;;;;;;;17.79;83.75;100039.81;5121143;28;20300;-63
2022/09/01 08:55:40;;;;;;;11.77;2.90;;;;;;;17.87;84.44;100066.72;5123861;28;20305;-63
2022/09/01 08:58:33;;;;;;;6.73;3.07;;;;;;;17.96;84.79;100103.28;5125169;28;20296;-65
2022/09/01 09:01:26;;;;;;;9.90;3.30;;;;;;;17.82;85.48;100101.34;5125511;28;20285;-65
2022/09/01 09:04:19;;;;;;;8.60;3.53;;;;;;;17.83;85.86;100112.75;5123076;28;20292;-65
2022/09/01 09:07:17;;;;;;;10.10;3.60;;;;;;;17.74;86.35;100113.16;5098947;28;20288;-67
2022/09/01 09:10:15;;;;;;;30.17;4.90;;;;;;;17.33;86.57;100049.97;5094069;28;20323;-65
2022/09/01 09:13:18;;;;;;;18.87;4.30;;;;;;;17.60;86.59;100101.50;5124927;28;20292;-66
2022/09/01 09:16:13;;;;;;;15.17;3.57;;;;;;;17.69;87.15;100126.59;5082754;28;20278;-65
2022/09/01 09:18:53;;;;;;;12.13;4.00;;;;;;;17.65;86.99;100120.63;5089611;28;20305;-64
2022/09/01 09:21:38;;;;;;;18.80;3.60;;;;;;;17.53;87.52;100109.78;5123979;28;20282;-65
2022/09/01 09:24:26;;;;;;;12.47;3.00;;;;;;;17.62;87.51;100141.91;5124606;28;20285;-65
2022/09/01 09:27:18;;;;;;;13.90;3.90;;;;;;;17.57;87.69;100146.56;5123944;28;20308;-64
2022/09/01 09:33:42;;;;;;;8.27;3.40;;;;;;;17.58;87.93;100156.19;5123479;28;20285;-64
2022/09/01 09:36:41;;;;;;;10.07;3.13;;;;;;;17.50;88.52;100152.16;5123357;28;20834;-64
2022/09/01 09:39:27;;;;;;;14.40;3.67;;;;;;;17.53;88.68;100168.75;5121354;27;20285;-65
2022/09/01 09:42:09;;;;;;;12.70;3.33;;;;;;;17.53;88.87;100158.19;5124019;28;20311;-65
2022/09/01 09:44:51;;;;;;;10.37;3.20;;;;;;;17.53;89.38;100168.75;5125274;28;20279;-65
2022/09/01 09:47:40;;;;;;;7.40;3.70;;;;;;;17.51;88.91;100160.03;5122326;28;20305;-65
2022/09/01 09:50:48;;;;;;;15.17;3.83;;;;;;;17.33;88.80;100142.41;5124716;28;20331;-65
2022/09/01 09:53:32;;;;;;;26.80;4.40;;;;;;;17.49;89.24;100172.44;5124089;28;20569;-65
2022/09/01 09:56:11;;;;;;;30.87;4.63;;;;;;;17.50;89.63;100179.47;5124586;28;20289;-64
2022/09/01 09:58:54;;;;;;;9.30;4.27;;;;;;;17.50;89.63;100179.47;5124229;28;20323;-64
2022/09/01 10:01:38;;;;;;;12.53;4.20;;;;;;;17.49;89.78;100182.16;5124109;28;20285;-64
2022/09/01 10:04:33;;;;;;;9.40;3.40;;;;;;;17.45;90.06;100182.31;5124830;28;20381;-64
2022/09/01 10:07:42;;;;;;;13.50;3.60;;;;;;;17.42;90.58;100176.31;5123138;28;20594;-65
2022/09/01 10:10:31;;;;;;;9.47;3.87;;;;;;;17.35;90.66;100178.38;5106246;28;20306;-66
2022/09/01 10:13:22;;;;;;;10.70;4.00;;;;;;;17.35;90.52;100182.81;5124543;28;20288;-65
2022/09/01 10:16:26;;;;;;;6.70;3.80;;;;;;;17.34;90.68;100175.81;5123964;28;20349;-64
2022/09/01 10:19:10;;;;;;;14.00;4.23;;;;;;;17.32;90.80;100185.56;5122916;28;20357;-64
2022/09/01 10:21:50;;;;;;;8.47;3.73;;;;;;;17.29;90.66;100191.00;5123941;28;20289;-63
2022/09/01 10:24:36;;;;;;;11.37;3.87;;;;;;;17.28;90.93;100205.16;5123104;28;20281;-64
2022/09/01 10:27:20;;;;;;;6.87;4.00;;;;;;;17.29;90.71;100214.78;5124213;28;20297;-64
2022/09/01 10:30:10;;;;;;;9.30;4.60;;;;;;;17.29;90.60;100206.84;5095211;28;20362;-64
2022/09/01 10:32:57;;;;;;;10.57;4.10;;;;;;;16.97;90.85;100148.41;5122846;28;20300;-64
2022/09/01 10:36:07;;;;;;;11.00;4.10;;;;;;;17.13;90.97;100186.41;5123861;28;20273;-65
2022/09/01 10:38:47;;;;;;;9.77;4.30;;;;;;;17.22;91.11;100200.97;5122586;28;20309;-65
2022/09/01 10:42:06;;;;;;;7.87;4.37;;;;;;;17.21;91.01;100218.59;5124159;28;20337;-65
2022/09/01 10:45:00;;;;;;;12.13;4.57;;;;;;;17.18;91.16;100213.47;5123132;28;20417;-65
2022/09/01 10:47:41;;;;;;;9.37;4.30;;;;;;;17.21;91.06;100215.97;5123425;28;20319;-64
2022/09/01 10:50:36;;;;;;;7.07;4.17;;;;;;;17.19;91.37;100223.09;5123199;28;20323;-65
2022/09/01 10:53:47;;;;;;;10.10;4.03;;;;;;;17.13;91.11;100220.75;5123068;28;20356;-64
2022/09/01 10:59:32;;;;;;;7.20;4.50;;;;;;;17.00;91.27;100206.38;5123184;28;20364;-63
2022/09/01 11:02:44;;;;;;;9.27;4.40;;;;;;;17.14;91.42;100224.22;5123204;28;20617;-63
2022/09/01 11:05:30;;;;;;;9.07;4.20;;;;;;;17.14;91.21;100230.38;5121648;28;20611;-63
2022/09/01 11:08:42;;;;;;;9.87;4.73;;;;;;;17.09;91.28;100227.06;5122222;28;20354;-64
2022/09/01 11:11:37;;;;;;;6.03;4.07;;;;;;;17.10;91.39;100242.00;5122750;28;20309;-64
2022/09/01 11:14:20;;;;;;;7.87;4.17;;;;;;;16.99;91.28;100220.47;5122909;28;20832;-64
2022/09/01 11:17:21;;;;;;;6.13;3.80;;;;;;;17.08;91.19;100237.72;5121214;28;20478;-64
2022/09/01 11:20:05;;;;;;;9.00;4.47;;;;;;;17.09;91.27;100242.91;5122358;28;20373;-64
2022/09/01 11:22:47;;;;;;;8.33;4.70;;;;;;;17.01;91.34;100234.47;5079095;28;20286;-66
2022/09/01 11:25:42;;;;;;;9.33;4.57;;;;;;;17.10;91.28;100239.38;5122988;28;20293;-65
2022/09/01 11:29:03;;;;;;;9.37;4.90;;;;;;;17.12;91.38;100237.47;5078724;28;20271;-64
2022/09/01 11:31:54;;;;;;;9.80;4.27;;;;;;;16.71;91.11;100168.88;5049553;28;20310;-67
2022/09/01 11:37:50;;;;;;;5.97;4.60;;;;;;;17.01;91.70;100210.72;5076027;28;20305;-65
2022/09/01 11:40:41;;;;;;;9.97;4.83;;;;;;;16.86;91.69;100198.19;5079616;28;20302;-64
2022/09/01 11:43:36;;;;;;;5.83;4.33;;;;;;;16.96;92.03;100216.19;5048483;28;20883;-63
2022/09/01 11:46:29;;;;;;;9.57;5.57;;;;;;;16.99;91.67;100210.78;5078256;28;20589;-64
2022/09/01 11:49:37;;;;;;;7.17;4.13;;;;;;;16.91;91.94;100207.63;5079422;28;20282;-64
2022/09/01 11:52:33;;;;;;;5.77;3.47;;;;;;;16.85;92.29;100207.91;5045995;28;20341;-64
2022/09/01 11:55:33;;;;;;;10.40;4.50;;;;;;;16.87;92.91;100215.72;5021634;28;20283;-65
2022/09/01 11:58:09;;;;;;;7.03;3.97;;;;;;;16.88;93.07;100214.81;5079040;28;20303;-65
2022/09/01 12:00:54;;;;;;;6.07;2.93;;;;;;;16.80;93.29;100205.47;5078183;28;20360;-65
2022/09/01 12:03:32;;;;;;;6.03;3.50;;;;;;;16.79;93.80;100206.34;5079449;28;20283;-65
2022/09/01 12:06:23;;;;;;;6.90;4.13;;;;;;;16.74;94.46;100205.66;5111884;28;20450;-65
2022/09/01 12:09:24;;;;;;;10.67;5.30;;;;;;;16.53;94.79;100167.88;5118472;28;20075;-65
2022/09/01 12:12:03;;;;;;;8.07;4.77;;;;;;;16.75;95.19;100199.47;5082896;28;20405;-66
2022/09/01 12:14:57;;;;;;;6.47;3.90;;;;;;;16.68;95.43;100190.13;5121579;28;20296;-66
2022/09/01 12:18:25;;;;;;;7.47;3.70;;;;;;;16.64;96.03;100172.69;5121900;28;20063;-67
2022/09/01 12:21:41;;;;;;;6.30;3.50;;;;;;;16.64;96.24;100177.97;5121967;28;20292;-66
2022/09/01 12:24:28;;;;;;;6.10;3.50;;;;;;;16.60;96.60;100165.84;5091884;28;20632;-65
2022/09/01 12:27:11;;;;;;;6.77;3.63;;;;;;;16.62;96.91;100166.63;5124106;28;20350;-66
2022/09/01 12:29:54;;;;;;;8.77;3.67;;;;;;;16.64;96.97;100162.13;5123647;28;20289;-66
2022/09/01 12:32:36;;;;;;;6.03;3.43;;;;;;;16.66;96.98;100157.66;5123745;28;20311;-66
2022/09/01 12:35:23;;;;;;;7.93;3.50;;;;;;;16.68;97.02;100153.19;5119207;28;20302;-65
2022/09/01 12:38:27;;;;;;;9.17;5.37;;;;;;;16.66;96.82;100147.09;5121392;28;20325;-64
2022/09/01 12:42:01;;;;;;;8.30;5.87;;;;;;;16.67;96.74;100140.91;5121927;28;20281;-65
2022/09/01 12:44:59;;;;;;;8.63;5.60;;;;;;;16.62;96.82;100121.78;5123986;28;20482;-65
2022/09/01 12:47:51;;;;;;;6.90;5.27;;;;;;;16.59;96.93;100116.63;5123926;28;20205;-65
2022/09/01 12:50:46;;;;;;;7.00;5.23;;;;;;;16.56;97.01;100111.50;5123777;28;20354;-66
2022/09/01 12:53:31;;;;;;;8.00;5.17;;;;;;;16.54;97.19;100122.09;5124092;28;20308;-65
2022/09/01 12:56:38;;;;;;;12.27;5.30;;;;;;;16.57;97.51;100123.75;5123818;28;20285;-65
2022/09/01 12:59:22;;;;;;;9.83;5.40;;;;;;;16.57;97.66;100118.47;5074704;28;20532;-65
2022/09/01 13:02:38;;;;;;;8.80;5.03;;;;;;;16.57;97.64;100124.63;5081391;28;20286;-65
2022/09/01 13:05:32;;;;;;;9.90;4.93;;;;;;;16.56;97.64;100122.91;5123495;28;20361;-65
2022/09/01 13:08:21;;;;;;;9.13;5.37;;;;;;;16.56;97.75;100116.78;5123928;28;20281;-65
2022/09/01 13:10:58;;;;;;;9.13;5.23;;;;;;;16.50;97.67;100117.03;5076615;28;20381;-65
2022/09/01 13:13:34;;;;;;;10.07;5.40;;;;;;;16.49;97.53;100115.31;5072627;28;20356;-65
2022/09/01 13:16:15;;;;;;;8.87;5.83;;;;;;;16.54;97.47;100103.66;5123652;28;20300;-64
2022/09/01 13:18:53;;;;;;;7.30;4.40;;;;;;;16.53;97.53;100101.94;5123858;28;20289;-64
2022/09/01 13:21:51;;;;;;;12.17;5.20;;;;;;;16.53;97.30;100095.81;5123910;28;20289;-64
2022/09/01 13:24:30;;;;;;;9.43;4.70;;;;;;;16.48;97.42;100092.53;5123630;28;20289;-64
2022/09/01 13:27:09;;;;;;;8.87;4.23;;;;;;;16.51;97.46;100100.28;5071251;28;20333;-64
2022/09/01 13:30:01;;;;;;;8.67;4.53;;;;;;;16.51;97.59;100097.66;5123468;28;20352;-63
2022/09/01 13:32:50;;;;;;;7.63;4.50;;;;;;;16.52;97.67;100099.34;5122270;28;20297;-63
2022/09/01 13:36:04;;;;;;;9.83;5.90;;;;;;;16.56;97.64;100106.22;5097891;28;20297;-63
2022/09/01 13:39:22;;;;;;;13.40;8.07;;;;;;;16.55;97.59;100109.81;5123102;28;20366;-63
2022/09/01 13:42:20;;;;;;;10.67;7.60;;;;;;;16.51;97.34;100108.22;5127112;28;20281;-62
2022/09/01 13:44:59;;;;;;;;;;;;;;;16.46;97.59;100104.91;5066819;28;20331;-63
2022/09/01 13:47:50;;;;;;;11.30;8.30;;;;;;;16.36;97.73;100084.22;5127172;28;19959;-62
2022/09/01 13:50:45;;;;;;;13.60;8.80;;;;;;;16.37;97.33;100074.50;5127180;28;20311;-63
2022/09/01 13:53:58;;;;;;;12.47;9.43;;;;;;;16.06;96.97;100033.66;5088823;28;20313;-63
2022/09/01 13:56:46;;;;;;;17.23;9.87;;;;;;;16.03;96.46;100023.25;5127251;28;20638;-63
2022/09/01 13:59:44;;;;;;;15.23;9.60;;;;;;;16.32;96.26;100082.59;5127287;28;20310;-63